Larkspur — C6BR6 — position and weather

sailwx.info

Track history (hours):
 
Tides and Currents Weather Stations Pressure Air Temp Water Temp Dewpoint Dewpoint Depression Visibility Wind Speed Wind Dir Waves Ship Positions

Larkspur

Operator: Transeuropa Lines

Last reported at 2015-Jun-28 14:12 UTC. Time now 2015-Jul-05 00:12 UTC.
Position N 01°55' E 102°20'.

Length 225 m; draft 8 m.

Type: Tanker. MMSI: 311000344.

Date/timePositionNaut miles runAvg speedWind from/ knotsBaromVisibWave heightAir tempDewpointWater temp
2015-Jun-28 14:12N 01°55' E 102°20'1217.9
2015-Jun-28 13:33N 01°50' E 102°31'1817.8
2015-Jun-28 12:33N 01°41' E 102°47'5617.2
2015-Jun-28 09:16N 01°12' E 103°35'7 0.8
2015-Jun-28 00:17N 01°11' E 103°42'0 0.1
2015-Jun-27 18:33N 01°11' E 103°42'5 5.5
2015-Jun-27 17:33N 01°10' E 103°47'9 8.8
2015-Jun-27 16:33N 01°14' E 103°55'7 6.7
2015-Jun-27 15:31N 01°16' E 104°02'7 6.8
2015-Jun-27 14:32N 01°17' E 104°09'  
Track history (hours):
 
Tides and Currents Weather Stations Pressure Air Temp Water Temp Dewpoint Dewpoint Depression Visibility Wind Speed Wind Dir Waves Ship Positions

Larkspur

Operator: Transeuropa Lines

Last reported at 2015-Jun-28 14:12 UTC. Time now 2015-Jul-05 00:12 UTC.
Position N 01°55' E 102°20'.

Length 225 m; draft 8 m.

Type: Tanker. MMSI: 311000344.

Date/timePositionNaut miles runAvg speedWind from/ knotsBaromVisibWave heightAir tempDewpointWater temp
2015-Jun-28 14:12N 01°55' E 102°20'1217.9
2015-Jun-28 13:33N 01°50' E 102°31'1817.8
2015-Jun-28 12:33N 01°41' E 102°47'5617.2
2015-Jun-28 09:16N 01°12' E 103°35'7 0.8
2015-Jun-28 00:17N 01°11' E 103°42'0 0.1
2015-Jun-27 18:33N 01°11' E 103°42'5 5.5
2015-Jun-27 17:33N 01°10' E 103°47'9 8.8
2015-Jun-27 16:33N 01°14' E 103°55'7 6.7
2015-Jun-27 15:31N 01°16' E 104°02'7 6.8
2015-Jun-27 14:32N 01°17' E 104°09'  

Dump ship's entire track history